Time;durP1;ratioP1;P1;durP2;ratioP2;P2;SDS_P1;SDS_P2;PMS_P1;PMS_P2;Temp;Humidity;BMP_temperature;BMP_pressure;BME280_temperature;BME280_humidity;BME280_pressure;Samples;Min_cycle;Max_cycle;Signal;HPM_P1;HPM_P2
2022/08/22 00:02:14;;;;;;;;;4.50;3.75;;;;;21.42;52.11;101221.25;4996223;28;45455;-80
2022/08/22 00:04:59;;;;;;;;;7.00;4.00;;;;;21.43;52.16;101219.44;4996153;28;46557;-81
2022/08/22 00:08:01;;;;;;;;;6.25;3.50;;;;;21.39;51.45;101207.38;4996150;28;45762;-80
2022/08/22 00:10:34;;;;;;;;;6.00;4.00;;;;;21.39;52.05;101215.31;4996070;28;45309;-81
2022/08/22 00:13:07;;;;;;;;;4.50;4.00;;;;;21.36;51.70;101213.72;4995617;28;45392;-80
2022/08/22 00:15:37;;;;;;;;;4.00;3.00;;;;;21.38;51.92;101209.19;4979728;28;46561;-80
2022/08/22 00:18:17;;;;;;;;;3.50;3.50;;;;;21.36;51.88;101202.25;4979585;28;45771;-80
2022/08/22 00:20:57;;;;;;;;;4.50;4.00;;;;;21.32;51.38;101196.34;5050604;28;45458;-80
2022/08/22 00:23:31;;;;;;;;;5.00;4.00;;;;;21.32;51.67;101188.41;5058060;28;45385;-80
2022/08/22 00:26:28;;;;;;;;;4.25;3.00;;;;;21.37;51.77;101190.75;5057578;28;45550;-80
2022/08/22 00:29:09;;;;;;;;;4.75;3.00;;;;;21.38;51.52;101190.66;5056730;28;45407;-80
2022/08/22 00:31:38;;;;;;;;;6.00;3.00;;;;;21.43;51.43;101185.03;5060189;28;45271;-80
2022/08/22 00:34:11;;;;;;;;;4.00;4.00;;;;;21.48;51.25;101188.25;5077007;28;45495;-80
2022/08/22 00:37:06;;;;;;;;;5.00;2.25;;;;;21.48;50.83;101185.59;5077753;27;45473;-80
2022/08/22 00:39:39;;;;;;;;;3.75;3.75;;;;;21.44;50.91;101184.97;5055428;28;45479;-80
2022/08/22 00:42:13;;;;;;;;;3.75;3.00;;;;;21.43;50.41;101191.19;5055234;28;45491;-80
2022/08/22 00:44:51;;;;;;;;;3.50;3.00;;;;;21.42;51.06;101201.88;5055492;28;45319;-80
2022/08/22 00:47:37;;;;;;;;;5.25;4.00;;;;;21.42;50.79;101199.22;5055314;28;46654;-81
2022/08/22 00:50:42;;;;;;;;;5.00;3.00;;;;;21.42;50.67;101201.88;5055087;28;45408;-80
2022/08/22 00:53:10;;;;;;;;;4.25;2.75;;;;;21.40;50.36;101206.44;4975662;28;45386;-80
2022/08/22 00:56:00;;;;;;;;;2.00;2.00;;;;;21.42;50.60;101207.16;4975585;28;45594;-81
2022/08/22 00:58:34;;;;;;;;;2.25;2.25;;;;;21.41;50.24;101198.41;4975542;28;45460;-80
2022/08/22 01:01:05;;;;;;;;;3.00;2.50;;;;;21.40;50.41;101193.19;4975695;28;45286;-80
2022/08/22 01:03:45;;;;;;;;;6.00;4.50;;;;;21.34;50.06;101196.22;4975616;28;45528;-80
2022/08/22 01:06:23;;;;;;;;;7.00;2.50;;;;;21.32;50.10;101196.34;4975702;28;45563;-80
2022/08/22 01:09:09;;;;;;;;;2.00;2.00;;;;;21.31;50.46;101209.69;4975441;28;46380;-80
2022/08/22 01:12:05;;;;;;;;;4.00;3.00;;;;;21.27;49.93;101209.88;4975148;28;46002;-81
2022/08/22 01:14:36;;;;;;;;;1.00;1.00;;;;;21.20;50.76;101210.41;4975518;28;45374;-80
2022/08/22 01:17:44;;;;;;;;;4.00;4.00;;;;;21.11;50.62;101205.72;4989958;28;45487;-80
2022/08/22 01:20:10;;;;;;;;;3.75;2.75;;;;;21.03;50.90;101201.78;4987172;28;47038;-80
2022/08/22 01:23:12;;;;;;;;;4.00;4.00;;;;;21.00;50.91;101201.97;4994940;28;45411;-80
2022/08/22 01:26:07;;;;;;;;;4.00;4.00;;;;;21.00;51.58;101201.13;4994842;28;45472;-80
2022/08/22 01:28:55;;;;;;;;;5.00;3.75;;;;;20.98;51.17;101195.09;4995068;28;45401;-80
2022/08/22 01:31:20;;;;;;;;;5.75;3.00;;;;;20.89;51.63;101188.59;5076870;27;45691;-80
2022/08/22 01:34:19;;;;;;;;;5.67;4.00;;;;;20.85;51.50;101187.09;5077016;28;45300;-80
2022/08/22 01:36:57;;;;;;;;;6.25;3.00;;;;;20.79;51.73;101177.75;5076889;27;45293;-80
2022/08/22 01:39:41;;;;;;;;;3.00;3.00;;;;;20.76;51.64;101177.94;5075681;28;45496;-80
2022/08/22 01:42:42;;;;;;;;;3.25;3.00;;;;;20.72;51.93;101188.84;5077037;27;46312;-80
2022/08/22 01:45:13;;;;;;;;;2.00;2.00;;;;;20.67;51.78;101175.91;5076951;27;45310;-81
2022/08/22 01:47:49;;;;;;;;;7.50;3.50;;;;;20.65;52.43;101161.94;5077152;28;45386;-80
2022/08/22 01:50:22;;;;;;;;;6.00;3.50;;;;;20.65;52.22;101165.44;5077126;27;45347;-80
2022/08/22 01:52:50;;;;;;;;;2.75;2.75;;;;;20.67;52.56;101170.59;5076889;27;45451;-80
2022/08/22 01:55:47;;;;;;;;;3.50;3.00;;;;;20.62;52.15;101173.56;5076338;27;45656;-80
2022/08/22 01:58:20;;;;;;;;;4.75;4.75;;;;;20.60;52.34;101177.22;5077044;27;45331;-80
2022/08/22 02:01:16;;;;;;;;;5.00;3.00;;;;;20.58;52.72;101182.63;5075522;27;45410;-81
2022/08/22 02:04:06;;;;;;;;;2.50;2.50;;;;;20.56;53.03;101183.63;5076523;27;46479;-80
2022/08/22 02:06:37;;;;;;;;;2.50;2.50;;;;;20.50;52.77;101187.53;5076680;28;45922;-80
2022/08/22 02:09:20;;;;;;;;;4.00;3.00;;;;;20.41;52.61;101180.19;5076372;27;45446;-80
2022/08/22 02:11:51;;;;;;;;;5.75;2.50;;;;;20.33;52.96;101187.75;5075443;27;45413;-81
2022/08/22 02:14:39;;;;;;;;;4.00;2.50;;;;;20.28;52.95;101183.63;5075208;28;46729;-81
2022/08/22 02:17:28;;;;;;;;;5.00;3.00;;;;;20.27;52.88;101181.06;5075230;28;45385;-80
2022/08/22 02:20:03;;;;;;;;;3.25;3.00;;;;;20.24;52.56;101174.16;5075414;27;45330;-80
2022/08/22 02:22:38;;;;;;;;;5.50;2.75;;;;;20.22;52.71;101185.78;5076301;27;45226;-80
2022/08/22 02:25:14;;;;;;;;;4.25;3.00;;;;;20.20;52.93;101182.38;5074874;27;47680;-80
2022/08/22 02:28:18;;;;;;;;;2.75;2.75;;;;;20.17;52.82;101183.44;5075309;28;45419;-81
2022/08/22 02:31:01;;;;;;;;;4.00;4.00;;;;;20.14;53.05;101173.03;5053767;28;45449;-80
2022/08/22 02:33:44;;;;;;;;;5.00;4.00;;;;;20.16;53.86;101171.16;5036744;28;45526;-81
2022/08/22 02:36:30;;;;;;;;;4.00;3.00;;;;;20.17;53.22;101174.63;5053471;28;45674;-80
2022/08/22 02:39:20;;;;;;;;;3.00;2.25;;;;;20.18;53.18;101181.63;5036819;28;45748;-80
2022/08/22 02:41:56;;;;;;;;;4.00;4.00;;;;;20.16;53.17;101188.81;5037076;28;45520;-80
2022/08/22 02:44:29;;;;;;;;;4.00;3.00;;;;;20.11;52.60;101194.38;5036500;28;45506;-80
2022/08/22 02:47:30;;;;;;;;;3.25;3.25;;;;;20.08;53.46;101181.38;5053436;28;46568;-80
2022/08/22 02:50:16;;;;;;;;;3.25;2.75;;;;;20.08;53.22;101176.09;5036697;28;45823;-80
2022/08/22 02:53:04;;;;;;;;;3.00;2.00;;;;;20.05;53.23;101177.09;5036319;28;45881;-80
2022/08/22 02:55:42;;;;;;;;;3.75;2.75;;;;;20.01;53.11;101183.53;5036650;28;45454;-80
2022/08/22 02:58:14;;;;;;;;;4.75;3.00;;;;;20.01;53.20;101185.31;5036453;28;45514;-80
2022/08/22 03:00:46;;;;;;;;;2.75;2.75;;;;;19.98;53.56;101178.41;5053325;28;49517;-80
2022/08/22 03:03:21;;;;;;;;;4.25;3.00;;;;;19.98;53.45;101178.41;5053579;28;45330;-80
2022/08/22 03:05:51;;;;;;;;;5.25;4.25;;;;;19.97;53.34;101176.75;5053108;28;45620;-80
2022/08/22 03:08:36;;;;;;;;;3.25;2.00;;;;;19.97;53.26;101176.75;5073624;27;45461;-81
2022/08/22 03:11:13;;;;;;;;;4.00;4.00;;;;;19.90;53.32;101183.34;5074485;27;45755;-80
2022/08/22 03:14:06;;;;;;;;;4.00;3.00;;;;;19.83;53.48;101174.94;5074685;28;45450;-80
2022/08/22 03:16:57;;;;;;;;;4.25;3.75;;;;;19.81;53.56;101175.97;5075813;28;45469;-80
2022/08/22 03:19:54;;;;;;;;;5.00;4.00;;;;;19.81;53.53;101176.81;5074235;28;45580;-80
2022/08/22 03:22:42;;;;;;;;;4.00;4.00;;;;;19.80;53.63;101187.47;5053051;28;45643;-80
2022/08/22 03:25:19;;;;;;;;;4.00;3.00;;;;;19.81;53.47;101191.81;5053148;28;45348;-80
2022/08/22 03:27:50;;;;;;;;;2.75;2.75;;;;;19.75;53.32;101186.91;5053173;28;45431;-80
2022/08/22 03:30:19;;;;;;;;;2.00;2.00;;;;;19.68;54.06;101181.94;5052862;28;45544;-80
2022/08/22 03:32:54;;;;;;;;;5.75;3.00;;;;;19.65;53.78;101178.66;5035967;28;45460;-80
2022/08/22 03:35:25;;;;;;;;;3.00;3.00;;;;;19.63;53.78;101177.88;5052581;28;45509;-80
2022/08/22 03:37:57;;;;;;;;;4.25;3.00;;;;;19.60;53.52;101181.56;5053007;28;45516;-80
2022/08/22 03:40:40;;;;;;;;;2.75;2.75;;;;;19.56;53.78;101174.78;5036074;28;45399;-80
2022/08/22 03:43:24;;;;;;;;;4.50;2.75;;;;;19.52;53.81;101173.28;5052840;28;45818;-80
2022/08/22 03:45:58;;;;;;;;;6.25;4.00;;;;;19.51;54.29;101172.41;5052827;28;45539;-80
2022/08/22 03:48:53;;;;;;;;;5.25;3.50;;;;;19.48;53.97;101177.00;5052888;28;45403;-80
2022/08/22 03:51:23;;;;;;;;;6.50;3.00;;;;;19.48;54.36;101174.38;5052582;28;46584;-80
2022/08/22 03:54:08;;;;;;;;;3.75;2.75;;;;;19.49;54.64;101174.28;5035583;28;45576;-80
2022/08/22 03:57:05;;;;;;;;;3.75;3.75;;;;;19.46;54.51;101165.69;5039240;28;45308;-80
2022/08/22 03:59:36;;;;;;;;;2.25;2.25;;;;;19.45;54.51;101171.94;5069601;28;45497;-80
2022/08/22 04:02:17;;;;;;;;;5.25;3.75;;;;;19.44;54.73;101159.66;5078319;27;46534;-80
2022/08/22 04:05:27;;;;;;;;;4.00;4.00;;;;;19.41;54.71;101155.44;5078181;27;45772;-80
2022/08/22 04:08:05;;;;;;;;;4.00;4.00;;;;;19.43;54.70;101156.19;5056097;28;45333;-80
2022/08/22 04:10:55;;;;;;;;;3.00;3.00;;;;;19.44;54.64;101155.22;5039322;28;45581;-80
2022/08/22 04:13:56;;;;;;;;;5.25;3.00;;;;;19.37;54.82;101150.41;5055714;28;46641;-80
2022/08/22 04:16:52;;;;;;;;;5.00;4.00;;;;;19.34;55.00;101154.09;5055741;28;45354;-80
2022/08/22 04:19:24;;;;;;;;;4.75;3.00;;;;;19.30;55.21;101156.06;5038721;28;45428;-80
2022/08/22 04:22:18;;;;;;;;;5.75;3.50;;;;;19.32;55.28;101158.63;5055770;28;45504;-80
2022/08/22 04:25:32;;;;;;;;;4.50;3.25;;;;;19.29;55.30;101158.78;5046399;28;46746;-80
2022/08/22 04:28:29;;;;;;;;;3.25;3.25;;;;;19.26;55.01;101154.53;5047484;28;45813;-81
2022/08/22 04:31:07;;;;;;;;;3.00;3.00;;;;;19.21;55.23;101158.41;5038928;28;45379;-80
2022/08/22 04:34:02;;;;;;;;;4.00;3.00;;;;;19.14;55.98;101158.72;5035233;28;45315;-80
2022/08/22 04:36:33;;;;;;;;;4.00;4.00;;;;;19.09;55.62;101155.53;5035208;28;46416;-80
2022/08/22 04:39:03;;;;;;;;;4.75;3.75;;;;;19.06;56.29;101150.44;5055490;28;45375;-80
2022/08/22 04:41:49;;;;;;;;;4.00;3.00;;;;;19.10;56.29;101146.66;5064437;28;45462;-80
2022/08/22 04:44:49;;;;;;;;;6.00;4.00;;;;;19.13;56.29;101151.78;5078314;28;45488;-80
2022/08/22 04:47:40;;;;;;;;;4.00;3.00;;;;;19.17;56.45;101160.38;5017939;28;47575;-81
2022/08/22 04:50:22;;;;;;;;;5.00;4.50;;;;;19.15;56.00;101163.09;5018418;28;45397;-80
2022/08/22 04:52:47;;;;;;;;;5.50;4.25;;;;;19.17;56.25;101175.31;5035129;28;45402;-80
2022/08/22 04:55:34;;;;;;;;;4.33;3.33;;;;;19.22;56.19;101183.81;5034820;28;46694;-80
2022/08/22 04:58:08;;;;;;;;;3.00;3.00;;;;;19.23;55.89;101173.19;5034905;28;46469;-80
2022/08/22 05:00:39;;;;;;;;;3.50;3.25;;;;;19.23;56.21;101172.34;5035099;28;45423;-81
2022/08/22 05:03:09;;;;;;;;;5.25;4.75;;;;;19.22;56.30;101170.63;5017943;28;45369;-80
2022/08/22 05:05:40;;;;;;;;;2.50;1.00;;;;;19.17;55.87;101170.91;5018023;28;45324;-80
2022/08/22 05:08:11;;;;;;;;;4.75;4.00;;;;;19.20;56.43;101189.19;5034767;28;46592;-80
2022/08/22 05:10:40;;;;;;;;;6.50;4.00;;;;;19.20;56.45;101191.81;5034902;28;45471;-81
2022/08/22 05:13:35;;;;;;;;;6.25;5.00;;;;;19.16;56.20;101195.59;5018413;28;45414;-80
2022/08/22 05:16:05;;;;;;;;;3.25;3.25;;;;;19.16;56.38;101195.59;5032956;28;45525;-80
2022/08/22 05:18:39;;;;;;;;;6.00;5.25;;;;;19.20;55.97;101178.63;5017913;28;46709;-80
2022/08/22 05:21:08;;;;;;;;;4.75;3.75;;;;;19.25;56.29;101186.31;5018095;28;45953;-81
2022/08/22 05:23:41;;;;;;;;;6.50;4.75;;;;;19.31;56.32;101184.13;5027319;28;45343;-80
2022/08/22 05:26:06;;;;;;;;;5.75;4.50;;;;;19.38;56.16;101183.78;5076207;28;45413;-80
2022/08/22 05:28:41;;;;;;;;;4.00;4.00;;;;;19.45;56.06;101187.78;5076090;27;46477;-80
2022/08/22 05:31:09;;;;;;;;;4.00;4.00;;;;;19.48;55.54;101191.09;5076890;27;45360;-80
2022/08/22 05:33:41;;;;;;;;;4.75;3.00;;;;;19.50;55.42;101206.81;5057080;28;45369;-80
2022/08/22 05:36:12;;;;;;;;;6.50;4.00;;;;;19.47;55.95;101209.66;5071238;27;45389;-81
2022/08/22 05:38:44;;;;;;;;;4.50;3.25;;;;;19.48;55.54;101208.69;5076895;27;46491;-80
2022/08/22 05:41:17;;;;;;;;;4.50;4.00;;;;;19.54;56.13;101211.84;5075782;27;45808;-80
2022/08/22 05:43:43;;;;;;;;;5.50;3.25;;;;;19.60;55.67;101210.63;5075998;27;45437;-80
2022/08/22 05:46:17;;;;;;;;;3.75;3.75;;;;;19.65;55.92;101208.56;5075491;27;45552;-80
2022/08/22 05:48:48;;;;;;;;;4.25;4.00;;;;;19.68;55.35;101210.16;5076869;27;45407;-80
2022/08/22 05:51:17;;;;;;;;;4.00;3.00;;;;;19.65;55.27;101203.28;5075639;28;46006;-80
2022/08/22 05:53:46;;;;;;;;;5.00;4.00;;;;;19.59;55.43;101203.63;5075664;28;45394;-80
2022/08/22 05:56:25;;;;;;;;;3.75;3.75;;;;;19.56;55.29;101203.84;5075861;27;45357;-81
2022/08/22 05:58:58;;;;;;;;;4.50;4.50;;;;;19.61;55.68;101214.94;5075388;28;46347;-80
2022/08/22 06:01:50;;;;;;;;;4.00;4.00;;;;;19.72;56.31;101212.56;5075062;27;45358;-81
2022/08/22 06:04:22;;;;;;;;;3.00;3.00;;;;;19.80;55.39;101213.88;5077051;27;45781;-81
2022/08/22 06:06:57;;;;;;;;;7.00;5.00;;;;;19.84;55.88;101212.78;5076801;28;45477;-81
2022/08/22 06:09:35;;;;;;;;;7.00;4.00;;;;;19.84;55.27;101223.34;5075321;27;46686;-80
2022/08/22 06:12:04;;;;;;;;;6.25;5.00;;;;;19.83;55.18;101226.91;5075344;28;45759;-80
2022/08/22 06:14:32;;;;;;;;;5.00;5.00;;;;;19.76;54.95;101221.16;5074767;27;45347;-81
2022/08/22 06:17:05;;;;;;;;;6.25;4.50;;;;;19.76;54.98;101217.66;5074690;28;45426;-80
2022/08/22 06:19:37;;;;;;;;;7.25;3.75;;;;;19.81;55.47;101208.50;5076260;27;45503;-81
2022/08/22 06:22:04;;;;;;;;;5.00;3.00;;;;;19.92;55.59;101215.78;5075160;28;45393;-80
2022/08/22 06:24:30;;;;;;;;;5.50;4.75;;;;;19.94;55.07;101216.53;5075386;27;45320;-80
2022/08/22 06:27:09;;;;;;;;;4.50;1.50;;;;;19.89;55.05;101222.13;5057256;28;67186;-80
2022/08/22 06:29:38;;;;;;;;;8.50;4.00;;;;;19.92;55.15;101215.78;5074634;28;46221;-80
2022/08/22 06:32:31;;;;;;;;;6.50;5.00;;;;;19.96;55.02;101227.03;5074854;28;45852;-81
2022/08/22 06:35:03;;;;;;;;;5.50;3.50;;;;;20.04;54.69;101232.69;5075575;27;45605;-80
2022/08/22 06:37:32;;;;;;;;;5.75;4.00;;;;;20.10;54.94;101219.13;5075148;27;45478;-80
2022/08/22 06:39:59;;;;;;;;;7.00;5.50;;;;;20.22;55.25;101218.34;5076061;27;45404;-81
2022/08/22 06:42:29;;;;;;;;;6.00;5.00;;;;;20.35;54.75;101223.72;5074940;28;45817;-80
2022/08/22 06:44:59;;;;;;;;;4.50;4.00;;;;;20.55;55.12;101221.63;5074806;28;45282;-80
2022/08/22 06:47:31;;;;;;;;;6.25;4.00;;;;;20.76;54.22;101222.09;5075038;28;45463;-81
2022/08/22 06:50:04;;;;;;;;;5.00;5.00;;;;;21.04;55.05;101213.19;5074732;27;46336;-80
2022/08/22 06:52:33;;;;;;;;;6.00;5.00;;;;;21.30;54.04;101200.88;5074664;28;45367;-81
2022/08/22 06:55:05;;;;;;;;;4.00;3.25;;;;;21.40;52.93;101209.09;5074660;28;45463;-80
2022/08/22 06:57:33;;;;;;;;;5.25;3.75;;;;;21.43;52.62;101209.72;5074389;28;45492;-81
2022/08/22 07:00:03;;;;;;;;;3.75;3.75;;;;;21.48;52.67;101213.88;5075863;27;45401;-80
2022/08/22 07:02:34;;;;;;;;;4.75;4.50;;;;;21.53;52.37;101214.44;5074667;28;45355;-81
2022/08/22 07:04:59;;;;;;;;;5.25;4.25;;;;;21.56;52.27;101225.69;5076099;27;45364;-80
2022/08/22 07:07:26;;;;;;;;;4.25;4.25;;;;;21.59;52.55;101237.84;5075142;27;62195;-80
2022/08/22 07:09:54;;;;;;;;;8.00;4.00;;;;;21.61;52.08;101247.38;5075569;27;45430;-81
2022/08/22 07:12:25;;;;;;;;;5.00;4.50;;;;;21.61;51.97;101238.59;5074277;28;45799;-80
2022/08/22 07:14:54;;;;;;;;;4.00;4.00;;;;;21.65;51.97;101238.25;5075717;27;45180;-81
2022/08/22 07:17:31;;;;;;;;;6.50;4.00;;;;;21.71;52.42;101242.31;5074617;28;45231;-80
2022/08/22 07:19:59;;;;;;;;;6.25;3.00;;;;;21.75;52.04;101241.16;5075383;27;46550;-80
2022/08/22 07:22:29;;;;;;;;;7.75;5.00;;;;;21.78;52.05;101245.38;5075718;28;45380;-80
2022/08/22 07:25:03;;;;;;;;;7.00;4.00;;;;;21.75;51.61;101241.16;5074663;27;45371;-80
2022/08/22 07:28:06;;;;;;;;;7.50;4.75;;;;;21.80;51.75;101249.66;5075363;27;45507;-80
2022/08/22 07:30:58;;;;;;;;;6.50;5.75;;;;;21.90;51.83;101251.63;5078913;27;46258;-80
2022/08/22 07:33:39;;;;;;;;;4.00;4.00;;;;;21.88;51.26;101253.56;5072396;27;45637;-80
2022/08/22 07:36:19;;;;;;;;;6.00;4.00;;;;;21.83;51.19;101248.59;5071529;27;45434;-80
2022/08/22 07:39:00;;;;;;;;;6.50;3.50;;;;;21.86;51.42;101256.34;5077795;27;45536;-80
2022/08/22 07:41:35;;;;;;;;;4.00;4.00;;;;;21.91;51.08;101256.84;5077358;27;46686;-80
2022/08/22 07:44:21;;;;;;;;;6.00;4.00;;;;;22.02;51.44;101251.66;5078963;27;45404;-80
2022/08/22 07:46:59;;;;;;;;;6.00;5.00;;;;;22.04;50.96;101254.19;5077991;28;45484;-80
2022/08/22 07:49:29;;;;;;;;;6.50;3.75;;;;;22.03;51.14;101263.13;5077747;27;45443;-80
2022/08/22 07:51:59;;;;;;;;;6.00;4.00;;;;;22.06;51.24;101259.41;5060460;28;46127;-80
2022/08/22 07:54:34;;;;;;;;;5.00;3.75;;;;;22.12;50.35;101261.63;5077353;28;45379;-80
2022/08/22 07:57:09;;;;;;;;;7.00;4.00;;;;;22.16;51.19;101261.31;5077284;28;45326;-80
2022/08/22 07:59:47;;;;;;;;;6.00;4.50;;;;;22.23;50.65;101248.47;5077999;27;45332;-81
2022/08/22 08:02:14;;;;;;;;;5.50;4.75;;;;;22.29;50.02;101248.09;5078694;27;45674;-81
2022/08/22 08:04:40;;;;;;;;;6.00;4.00;;;;;22.27;50.66;101247.34;5077636;27;45525;-81
2022/08/22 08:07:08;;;;;;;;;6.75;4.00;;;;;22.28;50.74;101259.63;5077596;27;45379;-80
2022/08/22 08:09:39;;;;;;;;;5.50;4.75;;;;;22.27;51.04;101251.78;5077409;28;45561;-81
2022/08/22 08:12:05;;;;;;;;;9.00;6.00;;;;;22.27;51.31;101255.28;5076848;27;47371;-81
2022/08/22 08:14:31;;;;;;;;;6.75;5.50;;;;;22.34;50.81;101258.34;5077093;27;45989;-80
2022/08/22 08:17:04;;;;;;;;;4.75;4.00;;;;;22.46;50.27;101270.75;5077530;28;45493;-80
2022/08/22 08:19:33;;;;;;;;;6.00;4.75;;;;;22.58;50.65;101267.25;5078540;27;45372;-80
2022/08/22 08:21:59;;;;;;;;;5.00;4.75;;;;;22.67;49.75;101262.22;5077472;27;45323;-81
2022/08/22 08:24:29;;;;;;;;;5.75;5.50;;;;;22.75;50.03;101268.69;5076737;27;45414;-79
2022/08/22 08:29:49;;;;;;;;;4.00;4.00;;;;;22.81;49.33;101270.88;5077300;27;45450;-81
2022/08/22 08:32:15;;;;;;;;;6.00;4.00;;;;;22.81;49.41;101262.09;5076749;28;46400;-81
2022/08/22 08:34:42;;;;;;;;;5.75;4.50;;;;;22.78;49.74;101259.66;5076630;27;48160;-80
2022/08/22 08:37:32;;;;;;;;;5.00;3.75;;;;;22.72;49.97;101250.31;5078286;27;45459;-81
2022/08/22 08:39:58;;;;;;;;;8.00;5.25;;;;;22.67;49.51;101254.25;5076292;28;45425;-81
2022/08/22 08:45:48;;;;;;;;;4.75;4.75;;;;;22.53;49.95;101248.16;5078208;28;45346;-81
2022/08/22 08:48:34;;;;;;;;;7.00;6.00;;;;;22.52;49.82;101246.44;5078355;27;45281;-81
2022/08/22 08:52:04;;;;;;;;;7.50;4.25;;;;;22.44;50.03;101243.50;5078148;28;45404;-80
2022/08/22 08:54:54;;;;;;;;;4.00;2.75;;;;;22.44;50.39;101235.53;5034385;28;46648;-81
2022/08/22 08:57:45;;;;;;;;;5.25;4.75;;;;;22.48;51.76;101236.16;5018649;28;45480;-81
2022/08/22 09:00:15;;;;;;;;;5.00;5.00;;;;;22.52;50.92;101221.72;5035372;28;45399;-81
2022/08/22 09:03:22;;;;;;;;;7.75;4.50;;;;;22.57;50.47;101227.56;5018682;28;45851;-80
2022/08/22 09:06:01;;;;;;;;;6.75;5.75;;;;;22.59;50.00;101222.97;4956073;28;45636;-80
2022/08/22 09:08:54;;;;;;;;;7.50;5.00;;;;;22.61;49.39;101224.56;4939512;28;45650;-81
2022/08/22 09:11:46;;;;;;;;;7.00;5.50;;;;;22.61;49.26;101219.25;4956372;28;45491;-81
2022/08/22 09:14:34;;;;;;;;;5.75;4.00;;;;;22.58;49.49;101226.59;4956061;28;45467;-81
2022/08/22 09:17:14;;;;;;;;;6.00;4.00;;;;;22.59;49.47;101220.31;4939945;28;45336;-80
2022/08/22 09:19:48;;;;;;;;;5.75;4.25;;;;;22.63;50.17;101221.78;4956036;28;45323;-81
2022/08/22 09:22:51;;;;;;;;;5.25;3.50;;;;;22.70;49.70;101217.75;4956136;28;45324;-81
2022/08/22 09:25:24;;;;;;;;;4.50;3.75;;;;;22.76;48.81;101213.78;4956005;28;45324;-81
2022/08/22 09:28:01;;;;;;;;;5.25;2.75;;;;;22.79;49.01;101219.72;4951744;28;45534;-81
2022/08/22 09:30:47;;;;;;;;;4.75;2.50;;;;;22.84;48.12;101213.22;5014837;28;45732;-81
2022/08/22 09:33:16;;;;;;;;;2.00;2.00;;;;;22.92;48.56;101214.38;4981479;28;45521;-81
2022/08/22 09:36:05;;;;;;;;;5.75;4.00;;;;;23.04;48.34;101217.13;5005301;28;45534;-81
2022/08/22 09:38:48;;;;;;;;;5.75;3.25;;;;;23.18;48.22;101207.16;4997573;28;46566;-81
2022/08/22 09:41:49;;;;;;;;;4.00;4.00;;;;;23.34;47.76;101200.69;5044454;27;45443;-81
2022/08/22 09:44:21;;;;;;;;;2.50;2.50;;;;;23.45;47.55;101194.56;5034393;28;45415;-81
2022/08/22 09:47:06;;;;;;;;;2.75;2.75;;;;;23.51;47.52;101186.97;5017853;28;45470;-80
2022/08/22 09:49:44;;;;;;;;;3.50;3.25;;;;;23.63;46.91;101187.00;5017748;28;45741;-80
2022/08/22 09:52:21;;;;;;;;;4.50;2.50;;;;;23.75;46.96;101196.66;5017179;28;45733;-81
2022/08/22 09:54:47;;;;;;;;;4.00;4.00;;;;;23.86;47.07;101188.72;5017528;28;45389;-81
2022/08/22 09:57:21;;;;;;;;;3.25;3.25;;;;;23.92;46.00;101195.38;5017737;28;45414;-81
2022/08/22 10:00:05;;;;;;;;;4.00;2.75;;;;;23.96;46.54;101199.53;5017500;28;45645;-81
2022/08/22 10:02:39;;;;;;;;;4.75;3.00;;;;;23.95;45.77;101200.47;5033938;28;45456;-81
2022/08/22 10:05:25;;;;;;;;;3.25;1.75;;;;;23.98;46.03;101202.91;5017737;28;45478;-81
2022/08/22 10:08:11;;;;;;;;;5.00;3.00;;;;;23.98;45.36;101202.91;5017077;28;45598;-81
2022/08/22 10:10:45;;;;;;;;;4.75;2.50;;;;;24.01;45.22;101201.81;5017330;28;45438;-81
2022/08/22 10:13:54;;;;;;;;;2.75;2.00;;;;;24.06;45.63;101203.13;5017494;28;45929;-81
2022/08/22 10:16:24;;;;;;;;;2.50;2.00;;;;;24.16;45.47;101192.59;4974662;28;45492;-81
2022/08/22 10:18:55;;;;;;;;;4.00;3.00;;;;;24.26;45.83;101198.06;4974614;28;45611;-81
2022/08/22 10:21:40;;;;;;;;;4.50;2.00;;;;;24.41;45.54;101196.00;5005326;28;46280;-81
2022/08/22 10:24:56;;;;;;;;;3.75;3.00;;;;;24.59;44.71;101194.53;5017533;28;45445;-81
2022/08/22 10:27:42;;;;;;;;;2.75;2.75;;;;;24.80;44.26;101191.09;4955297;28;45501;-81
2022/08/22 10:30:16;;;;;;;;;3.00;2.00;;;;;24.86;44.21;101179.94;4954971;28;45345;-81
2022/08/22 10:33:09;;;;;;;;;4.00;2.00;;;;;24.92;44.27;101185.59;4954847;28;45379;-81
2022/08/22 10:35:49;;;;;;;;;5.25;2.75;;;;;24.98;43.93;101181.59;4963858;28;45417;-81
2022/08/22 10:38:26;;;;;;;;;3.00;3.00;;;;;25.04;44.56;101181.06;4974552;28;45403;-80
2022/08/22 10:41:07;;;;;;;;;5.75;3.00;;;;;25.10;43.29;101185.03;4974603;28;45492;-81
2022/08/22 10:43:48;;;;;;;;;1.00;1.00;;;;;25.13;42.90;101187.47;4974334;28;46441;-81
2022/08/22 10:46:16;;;;;;;;;1.50;0.25;;;;;25.23;44.57;101185.72;4974235;28;45896;-80
2022/08/22 10:48:46;;;;;;;;;3.50;2.00;;;;;25.38;43.90;101185.41;4974259;28;45573;-80
2022/08/22 10:51:33;;;;;;;;;2.25;2.25;;;;;25.56;43.53;101188.34;5028116;28;45464;-81
2022/08/22 10:54:40;;;;;;;;;3.25;1.50;;;;;25.94;43.26;101173.56;5033188;28;46290;-81
2022/08/22 10:57:27;;;;;;;;;1.00;1.00;;;;;26.10;40.92;101179.22;5017019;28;45683;-81
2022/08/22 11:00:32;;;;;;;;;6.00;3.00;;;;;26.09;41.52;101182.88;5033616;28;45412;-81
2022/08/22 11:03:14;;;;;;;;;4.25;2.00;;;;;26.20;41.81;101179.25;5059081;28;45321;-81
2022/08/22 11:05:47;;;;;;;;;3.00;3.00;;;;;26.30;42.00;101171.28;5074255;28;46782;-80
2022/08/22 11:08:31;;;;;;;;;2.75;2.00;;;;;26.42;42.31;101181.69;5074736;28;45484;-81
2022/08/22 11:11:08;;;;;;;;;5.25;2.00;;;;;26.56;41.87;101183.16;5075959;27;45423;-81
2022/08/22 11:13:41;;;;;;;;;4.50;2.75;;;;;26.76;41.14;101184.03;5074729;28;45410;-81
2022/08/22 11:16:33;;;;;;;;;2.00;2.00;;;;;26.93;40.95;101184.31;5074504;28;46401;-80
2022/08/22 11:19:26;;;;;;;;;2.00;2.00;;;;;27.18;40.59;101172.25;5074111;28;45789;-81
2022/08/22 11:22:09;;;;;;;;;3.75;2.00;;;;;27.41;40.05;101176.31;5075840;28;45290;-81
2022/08/22 11:25:06;;;;;;;;;1.25;1.25;;;;;27.65;39.85;101179.50;5075853;27;45352;-81
2022/08/22 11:27:57;;;;;;;;;4.50;2.00;;;;;27.82;40.30;101176.03;5072966;28;47086;-80
2022/08/22 11:30:32;;;;;;;;;2.75;2.00;;;;;28.03;39.74;101175.88;5075492;27;45643;-81
2022/08/22 11:32:57;;;;;;;;;3.00;2.00;;;;;28.25;37.78;101171.97;5074027;28;45493;-81
2022/08/22 11:35:28;;;;;;;;;1.33;1.33;;;;;28.42;37.10;101177.47;5075456;28;45493;-81
2022/08/22 11:38:17;;;;;;;;;1.00;1.00;;;;;28.60;37.78;101172.19;5074190;27;46149;-82
2022/08/22 11:40:57;;;;;;;;;0.75;0.75;;;;;29.08;36.25;101174.47;5074158;28;45385;-81
2022/08/22 11:43:40;;;;;;;;;0.50;0.50;;;;;31.27;37.49;101176.53;5074326;27;45512;-81
2022/08/22 11:46:17;;;;;;;;;1.25;1.25;;;;;35.62;32.87;101171.44;5075605;28;45509;-81
2022/08/22 11:48:55;;;;;;;;;0.00;0.00;;;;;35.88;29.78;101166.41;5074982;27;46566;-81
2022/08/22 11:51:43;;;;;;;;;1.50;1.25;;;;;37.85;28.76;101167.00;5074118;28;45441;-81
2022/08/22 11:54:20;;;;;;;;;1.00;0.00;;;;;37.53;25.12;101165.00;5075094;27;45497;-81
2022/08/22 11:56:51;;;;;;;;;1.00;1.00;;;;;35.90;26.92;101165.16;5075422;27;45428;-81
2022/08/22 11:59:41;;;;;;;;;0.50;0.25;;;;;34.46;28.10;101163.59;5073959;28;45664;-81
2022/08/22 12:02:17;;;;;;;;;0.00;0.00;;;;;33.58;29.93;101169.91;5074919;27;45278;-81
2022/08/22 12:04:46;;;;;;;;;2.00;1.00;;;;;33.08;28.44;101170.38;5074057;27;45411;-81
2022/08/22 12:07:21;;;;;;;;;0.75;0.25;;;;;35.16;27.96;101173.81;5073925;27;45390;-81
2022/08/22 12:10:12;;;;;;;;;0.75;0.75;;;;;36.07;26.81;101172.94;5073876;28;45456;-82
2022/08/22 12:13:19;;;;;;;;;0.00;0.00;;;;;35.46;27.18;101161.78;5073989;28;45354;-81
2022/08/22 12:16:22;;;;;;;;;0.50;0.50;;;;;34.37;26.89;101162.03;5072433;28;45281;-81
2022/08/22 12:18:48;;;;;;;;;0.00;0.00;;;;;34.12;27.87;101156.97;5078211;27;45471;-81
2022/08/22 12:21:16;;;;;;;;;0.67;0.00;;;;;33.94;27.75;101159.22;5078256;28;45420;-81
2022/08/22 12:23:55;;;;;;;;;1.00;0.75;;;;;33.68;29.09;101149.75;5078287;27;45531;-81
2022/08/22 12:26:23;;;;;;;;;0.00;0.00;;;;;33.27;28.68;101152.88;5077231;27;45506;-80
2022/08/22 12:29:21;;;;;;;;;0.00;0.00;;;;;33.07;29.46;101149.81;5078352;27;45400;-81